Time;durP1;ratioP1;P1;durP2;ratioP2;P2;SDS_P1;SDS_P2;PMS_P1;PMS_P2;Temp;Humidity;BMP_temperature;BMP_pressure;BME280_temperature;BME280_humidity;BME280_pressure;Samples;Min_cycle;Max_cycle;Signal;HPM_P1;HPM_P2
2022/09/19 00:01:11;;;;;;;5.10;3.07;;;;;;;;;;6232082;23;20927;-94
2022/09/19 00:03:42;;;;;;;4.33;2.23;;;;;;;;;;6259349;23;20424;-94
2022/09/19 00:06:09;;;;;;;3.00;2.60;;;;;;;;;;6233571;23;20393;-95
2022/09/19 00:08:37;;;;;;;4.07;2.53;;;;;;;;;;6236513;23;20392;-95
2022/09/19 00:11:04;;;;;;;7.53;2.47;;;;;;;;;;6230336;23;20154;-96
2022/09/19 00:13:31;;;;;;;6.27;2.27;;;;;;;;;;6230642;23;20429;-95
2022/09/19 00:15:59;;;;;;;7.23;2.30;;;;;;;;;;6237855;23;20389;-95
2022/09/19 00:18:26;;;;;;;4.93;2.47;;;;;;;;;;6230647;23;20843;-94
2022/09/19 00:20:52;;;;;;;5.70;2.10;;;;;;;;;;6235426;23;20425;-95
2022/09/19 00:26:06;;;;;;;5.70;2.30;;;;;;;;;;6257351;23;20365;-94
2022/09/19 00:28:32;;;;;;;9.63;2.75;;;;;;;;;;6233124;23;20366;-95
2022/09/19 00:31:00;;;;;;;8.07;2.73;;;;;;;;;;6234319;23;20237;-95
2022/09/19 00:33:30;;;;;;;4.70;2.50;;;;;;;;;;6233544;23;20453;-95
2022/09/19 00:35:57;;;;;;;13.53;2.40;;;;;;;;;;6236898;23;20393;-95
2022/09/19 00:38:24;;;;;;;3.97;2.60;;;;;;;;;;6257461;23;20401;-94
2022/09/19 00:40:50;;;;;;;5.50;3.10;;;;;;;;;;6231837;23;20186;-95
2022/09/19 00:43:18;;;;;;;4.37;2.57;;;;;;;;;;6228972;23;20962;-95
2022/09/19 00:45:44;;;;;;;7.97;2.70;;;;;;;;;;6233026;23;20412;-96
2022/09/19 00:48:11;;;;;;;2.00;1.90;;;;;;;;;;6234950;23;20388;-94
2022/09/19 00:50:37;;;;;;;7.07;2.63;;;;;;;;;;6230635;23;20166;-95
2022/09/19 00:53:06;;;;;;;13.60;3.30;;;;;;;;;;6236588;23;20402;-95
2022/09/19 00:55:32;;;;;;;10.63;2.67;;;;;;;;;;6234665;23;20154;-95
2022/09/19 00:58:02;;;;;;;4.70;2.20;;;;;;;;;;6238279;23;20386;-95
2022/09/19 01:00:28;;;;;;;3.33;2.60;;;;;;;;;;6241009;23;20420;-95
2022/09/19 01:02:54;;;;;;;7.13;2.57;;;;;;;;;;6231075;23;20401;-95
2022/09/19 01:05:27;;;;;;;6.67;2.00;;;;;;;;;;6262031;23;20445;-95
2022/09/19 01:08:04;;;;;;;3.93;2.50;;;;;;;;;;6236018;23;20449;-95
2022/09/19 01:10:45;;;;;;;8.93;2.33;;;;;;;;;;6251040;23;20437;-91
2022/09/19 01:13:11;;;;;;;12.27;2.23;;;;;;;;;;6185324;23;20450;-92
2022/09/19 01:15:38;;;;;;;10.90;2.77;;;;;;;;;;6256292;23;20405;-93
2022/09/19 01:18:05;;;;;;;7.15;2.30;;;;;;;;;;6234668;23;20409;-91
2022/09/19 01:20:52;;;;;;;8.47;2.70;;;;;;;;;;6243781;23;20174;-93
2022/09/19 01:23:39;;;;;;;10.57;2.77;;;;;;;;;;6231836;23;20461;-91
2022/09/19 01:26:17;;;;;;;8.65;2.17;;;;;;;;;;6241007;23;20402;-93
2022/09/19 01:28:49;;;;;;;7.80;2.87;;;;;;;;;;6263801;23;20158;-92
2022/09/19 01:31:19;;;;;;;4.17;2.87;;;;;;;;;;6232651;23;20401;-93
2022/09/19 01:34:02;;;;;;;8.05;3.10;;;;;;;;;;6240138;23;20461;-90
2022/09/19 01:36:34;;;;;;;6.70;2.40;;;;;;;;;;6234265;23;20178;-92
2022/09/19 01:39:02;;;;;;;8.70;2.63;;;;;;;;;;6260087;23;20357;-92
2022/09/19 01:41:28;;;;;;;8.90;2.50;;;;;;;;;;6235425;23;20417;-92
2022/09/19 01:43:54;;;;;;;3.28;2.50;;;;;;;;;;6236186;23;20413;-92
2022/09/19 01:46:28;;;;;;;4.10;2.30;;;;;;;;;;6236048;23;20163;-93
2022/09/19 01:49:06;;;;;;;5.83;2.60;;;;;;;;;;6263759;23;20369;-92
2022/09/19 01:51:41;;;;;;;3.10;2.50;;;;;;;;;;6262501;23;20369;-92
2022/09/19 01:56:51;;;;;;;14.40;2.90;;;;;;;;;;6232743;22;20205;-92
2022/09/19 01:59:23;;;;;;;6.80;3.30;;;;;;;;;;6211928;23;20518;-92
2022/09/19 02:01:55;;;;;;;10.63;3.40;;;;;;;;;;6206666;23;20481;-92
2022/09/19 02:04:24;;;;;;;8.27;2.73;;;;;;;;;;6239518;23;20463;-93
2022/09/19 02:07:02;;;;;;;4.82;2.70;;;;;;;;;;6213465;23;20386;-93
2022/09/19 02:09:42;;;;;;;7.50;3.23;;;;;;;;;;6212416;23;20147;-92
2022/09/19 02:12:13;;;;;;;6.15;2.65;;;;;;;;;;6211674;23;20393;-92
2022/09/19 02:14:42;;;;;;;11.10;3.30;;;;;;;;;;6230388;22;20166;-92
2022/09/19 02:17:14;;;;;;;7.30;2.97;;;;;;;;;;6264056;23;20151;-92
2022/09/19 02:19:50;;;;;;;11.93;3.08;;;;;;;;;;6268549;23;20486;-93
2022/09/19 02:22:36;;;;;;;8.87;3.77;;;;;;;;;;6269604;23;20166;-92
2022/09/19 02:25:08;;;;;;;12.13;3.25;;;;;;;;;;6240336;23;20377;-91
2022/09/19 02:27:52;;;;;;;8.17;2.80;;;;;;;;;;6268572;23;20169;-91
2022/09/19 02:30:20;;;;;;;13.23;3.80;;;;;;;;;;6267758;23;20382;-91
2022/09/19 02:32:47;;;;;;;3.70;2.23;;;;;;;;;;6268786;23;20420;-90
2022/09/19 02:35:14;;;;;;;9.30;2.87;;;;;;;;;;6269042;23;20389;-91
2022/09/19 02:38:01;;;;;;;12.53;3.60;;;;;;;;;;6266073;23;20404;-93
2022/09/19 02:40:35;;;;;;;9.97;3.07;;;;;;;;;;6269345;23;20405;-94
2022/09/19 02:43:14;;;;;;;14.00;3.08;;;;;;;;;;6269660;23;20453;-91
2022/09/19 02:45:50;;;;;;;4.50;3.50;;;;;;;;;;6272006;23;20160;-91
2022/09/19 02:48:21;;;;;;;10.30;2.88;;;;;;;;;;6270969;22;20401;-93
2022/09/19 02:50:52;;;;;;;7.60;2.58;;;;;;;;;;6272991;23;20139;-91
2022/09/19 02:53:24;;;;;;;7.17;2.80;;;;;;;;;;6271851;22;20135;-89
2022/09/19 02:55:55;;;;;;;6.30;3.23;;;;;;;;;;6271340;22;20443;-93
2022/09/19 02:58:25;;;;;;;10.80;3.07;;;;;;;;;;6270043;22;20394;-91
2022/09/19 03:00:59;;;;;;;9.37;2.40;;;;;;;;;;6264093;22;20440;-93
2022/09/19 03:06:22;;;;;;;7.35;3.33;;;;;;;;;;6271121;23;20373;-92
2022/09/19 03:08:50;;;;;;;11.40;3.27;;;;;;;;;;6281707;22;20157;-92
2022/09/19 03:11:22;;;;;;;10.87;3.83;;;;;;;;;;6291947;22;20452;-92
2022/09/19 03:13:48;;;;;;;7.00;3.10;;;;;;;;;;6296801;22;20385;-92
2022/09/19 03:16:16;;;;;;;8.23;3.13;;;;;;;;;;6291763;22;20895;-89
2022/09/19 03:18:46;;;;;;;6.23;3.77;;;;;;;;;;6289698;22;20400;-91
2022/09/19 03:21:12;;;;;;;15.40;3.00;;;;;;;;;;6292075;22;20428;-92
2022/09/19 03:23:44;;;;;;;12.13;2.80;;;;;;;;;;6292820;22;20376;-92
2022/09/19 03:26:12;;;;;;;8.25;3.20;;;;;;;;;;6288820;22;20408;-93
2022/09/19 03:28:38;;;;;;;11.52;3.83;;;;;;;;;;6288262;22;20162;-91
2022/09/19 03:31:06;;;;;;;2.80;2.60;;;;;;;;;;6292957;22;20161;-92
2022/09/19 03:33:32;;;;;;;8.32;3.70;;;;;;;;;;6295049;22;20376;-92
2022/09/19 03:36:00;;;;;;;11.00;3.40;;;;;;;;;;6294924;22;20150;-93
2022/09/19 03:38:26;;;;;;;11.60;4.20;;;;;;;;;;6288370;22;20432;-91
2022/09/19 03:40:52;;;;;;;8.17;2.77;;;;;;;;;;6296933;22;20451;-92
2022/09/19 03:43:20;;;;;;;6.23;3.70;;;;;;;;;;6293509;22;20732;-92
2022/09/19 03:45:46;;;;;;;7.87;3.10;;;;;;;;;;6295074;22;20497;-92
2022/09/19 03:48:15;;;;;;;12.67;4.53;;;;;;;;;;6287962;22;20411;-92
2022/09/19 03:50:49;;;;;;;10.10;3.60;;;;;;;;;;6282494;22;20381;-93
2022/09/19 03:53:19;;;;;;;11.05;4.10;;;;;;;;;;6265684;22;20389;-90
2022/09/19 03:55:46;;;;;;;12.40;3.17;;;;;;;;;;6283731;22;20189;-89
2022/09/19 03:58:12;;;;;;;13.23;4.23;;;;;;;;;;6282174;22;20154;-91
2022/09/19 04:00:38;;;;;;;7.00;2.60;;;;;;;;;;6280490;22;20438;-91
2022/09/19 04:03:05;;;;;;;5.00;3.30;;;;;;;;;;6280901;22;20385;-92
2022/09/19 04:05:32;;;;;;;6.30;2.60;;;;;;;;;;6273196;22;20161;-92
2022/09/19 04:08:07;;;;;;;5.07;2.97;;;;;;;;;;6289806;22;20385;-92
2022/09/19 04:10:37;;;;;;;10.57;3.50;;;;;;;;;;6288519;22;20378;-93
2022/09/19 04:13:10;;;;;;;5.88;3.67;;;;;;;;;;6290698;22;20753;-91
2022/09/19 04:15:37;;;;;;;6.53;3.80;;;;;;;;;;6285960;22;20222;-89
2022/09/19 04:18:03;;;;;;;10.18;4.70;;;;;;;;;;6284635;22;20178;-92
2022/09/19 04:20:32;;;;;;;7.28;3.72;;;;;;;;;;6288077;22;20181;-92
2022/09/19 04:23:00;;;;;;;9.33;3.37;;;;;;;;;;6286426;22;20165;-92
2022/09/19 04:25:32;;;;;;;15.13;3.15;;;;;;;;;;6282464;22;20622;-92
2022/09/19 04:28:08;;;;;;;10.10;3.47;;;;;;;;;;6285043;22;20157;-93
2022/09/19 04:30:35;;;;;;;10.20;3.80;;;;;;;;;;6288131;22;20357;-92
2022/09/19 04:33:02;;;;;;;13.40;4.00;;;;;;;;;;6289847;22;20445;-92
2022/09/19 04:35:29;;;;;;;6.50;2.80;;;;;;;;;;6293657;22;20376;-92
2022/09/19 04:37:55;;;;;;;14.57;4.80;;;;;;;;;;6281609;22;20910;-92
2022/09/19 04:40:21;;;;;;;7.87;3.70;;;;;;;;;;6287030;22;20443;-94
2022/09/19 04:42:47;;;;;;;7.20;3.77;;;;;;;;;;6298211;22;20393;-93
2022/09/19 04:45:20;;;;;;;15.00;3.50;;;;;;;;;;6298922;22;20405;-93
2022/09/19 04:47:49;;;;;;;8.38;2.88;;;;;;;;;;6288718;22;20899;-93
2022/09/19 04:50:21;;;;;;;18.42;3.50;;;;;;;;;;6280500;22;20175;-93
2022/09/19 04:52:53;;;;;;;14.70;2.83;;;;;;;;;;6285193;22;20158;-92
2022/09/19 04:55:19;;;;;;;10.30;4.03;;;;;;;;;;6286047;22;20436;-92
2022/09/19 04:57:45;;;;;;;7.83;3.60;;;;;;;;;;6260497;22;20151;-93
2022/09/19 05:00:12;;;;;;;8.20;3.15;;;;;;;;;;6294848;22;20416;-92
2022/09/19 05:02:38;;;;;;;14.47;3.37;;;;;;;;;;6230215;22;20194;-92
2022/09/19 05:05:06;;;;;;;13.33;3.53;;;;;;;;;;6202664;22;20488;-90
2022/09/19 05:07:35;;;;;;;6.30;3.40;;;;;;;;;;6234695;23;20448;-93
2022/09/19 05:10:02;;;;;;;8.70;3.90;;;;;;;;;;6236517;23;20443;-91
2022/09/19 05:12:29;;;;;;;5.65;3.20;;;;;;;;;;6238818;23;20395;-94
2022/09/19 05:14:57;;;;;;;13.70;4.60;;;;;;;;;;6235109;23;20644;-91
2022/09/19 05:17:26;;;;;;;7.10;3.10;;;;;;;;;;6229734;23;20424;-91
2022/09/19 05:19:52;;;;;;;12.67;3.53;;;;;;;;;;6263230;23;20412;-93
2022/09/19 05:22:18;;;;;;;11.55;3.25;;;;;;;;;;6230385;23;20805;-93
2022/09/19 05:24:44;;;;;;;11.33;3.20;;;;;;;;;;6240006;22;20147;-92
2022/09/19 05:27:11;;;;;;;5.47;3.97;;;;;;;;;;6236136;23;20480;-94
2022/09/19 05:29:39;;;;;;;9.52;3.70;;;;;;;;;;6232634;23;20440;-91
2022/09/19 05:32:05;;;;;;;5.20;2.77;;;;;;;;;;6262800;22;20150;-91
2022/09/19 05:34:31;;;;;;;7.63;3.03;;;;;;;;;;6264838;23;20362;-93
2022/09/19 05:36:57;;;;;;;19.00;3.90;;;;;;;;;;6236673;23;20416;-89
2022/09/19 05:39:23;;;;;;;9.73;4.18;;;;;;;;;;6238720;22;20419;-93
2022/09/19 05:41:52;;;;;;;7.53;4.22;;;;;;;;;;6239699;23;20158;-93
2022/09/19 05:46:53;;;;;;;6.47;3.00;;;;;;;;;;6204600;23;20190;-94
2022/09/19 05:49:21;;;;;;;9.83;2.67;;;;;;;;;;6199654;23;20399;-92
2022/09/19 05:51:47;;;;;;;12.10;3.77;;;;;;;;;;6202112;23;20409;-92
2022/09/19 05:54:14;;;;;;;3.80;2.50;;;;;;;;;;6201519;23;20403;-93
2022/09/19 05:56:40;;;;;;;6.30;2.77;;;;;;;;;;6202763;23;20375;-92
2022/09/19 05:59:08;;;;;;;11.03;3.33;;;;;;;;;;6200583;23;20414;-91
2022/09/19 06:01:36;;;;;;;9.90;3.53;;;;;;;;;;6200945;23;20379;-92
2022/09/19 06:04:04;;;;;;;4.50;1.97;;;;;;;;;;6202001;23;20152;-92
2022/09/19 06:06:30;;;;;;;6.28;2.50;;;;;;;;;;6203557;23;20403;-94
2022/09/19 06:08:58;;;;;;;4.03;2.23;;;;;;;;;;6202044;23;20198;-94
2022/09/19 06:11:24;;;;;;;8.25;2.75;;;;;;;;;;6204261;23;20474;-92
2022/09/19 06:16:36;;;;;;;6.83;2.70;;;;;;;;;;6205488;23;20361;-93
2022/09/19 06:19:02;;;;;;;6.30;2.30;;;;;;;;;;6202972;23;20399;-93
2022/09/19 06:21:31;;;;;;;6.73;2.70;;;;;;;;;;6203612;23;20690;-94
2022/09/19 06:23:57;;;;;;;4.95;2.60;;;;;;;;;;6201144;23;20486;-94
2022/09/19 06:26:23;;;;;;;5.40;2.73;;;;;;;;;;6199228;23;20179;-91
2022/09/19 06:28:49;;;;;;;13.20;2.03;;;;;;;;;;6200415;23;20395;-91
2022/09/19 06:31:15;;;;;;;5.10;1.87;;;;;;;;;;6203967;23;20387;-92
2022/09/19 06:33:42;;;;;;;9.30;2.23;;;;;;;;;;6199995;23;20399;-92
2022/09/19 06:36:10;;;;;;;5.40;2.10;;;;;;;;;;6199091;23;20422;-93
2022/09/19 06:38:40;;;;;;;2.53;2.33;;;;;;;;;;6197631;23;20490;-90
2022/09/19 06:50:03;;;;;;;9.53;3.07;;;;;;;;;;6223533;23;20494;-94
2022/09/19 06:52:29;;;;;;;2.90;1.77;;;;;;;;;;6226584;23;20359;-92
2022/09/19 06:54:58;;;;;;;5.13;1.93;;;;;;;;;;6197215;23;20412;-90
2022/09/19 06:57:27;;;;;;;4.80;3.00;;;;;;;;;;6192988;23;20412;-91
2022/09/19 06:59:56;;;;;;;4.90;2.13;;;;;;;;;;6219867;23;20436;-90
2022/09/19 07:02:28;;;;;;;184.77;106.73;;;;;;;;;;6251442;23;20422;-90
2022/09/19 07:05:12;;;;;;;5.50;2.27;;;;;;;;;;6259406;23;20370;-95
2022/09/19 07:07:55;;;;;;;3.77;2.10;;;;;;;;;;6239888;23;20374;-92
2022/09/19 07:10:21;;;;;;;4.20;2.90;;;;;;;;;;6217480;23;20370;-93
2022/09/19 07:12:53;;;;;;;2.93;1.50;;;;;;;;;;6237654;23;20380;-90
2022/09/19 07:15:27;;;;;;;3.13;2.13;;;;;;;;;;6239274;23;20401;-93
2022/09/19 07:17:58;;;;;;;3.70;2.20;;;;;;;;;;6232874;23;20369;-94
2022/09/19 07:33:40;;;;;;;1.70;1.60;;;;;;;;;;6254560;23;20560;-90
2022/09/19 07:36:14;;;;;;;2.37;2.03;;;;;;;;;;6266287;22;20667;-93
2022/09/19 07:52:13;;;;;;;7.60;2.67;;;;;;;;;;6216950;22;20445;-93
2022/09/19 07:54:40;;;;;;;6.27;2.90;;;;;;;;;;6200617;23;20378;-90
2022/09/19 07:57:16;;;;;;;4.37;2.43;;;;;;;;;;6206903;23;20424;-90
2022/09/19 08:03:03;;;;;;;5.30;2.43;;;;;;;;;;6144696;23;20385;-92
2022/09/19 08:08:34;;;;;;;7.20;2.47;;;;;;;;;;6195657;22;20433;-91
2022/09/19 08:11:18;;;;;;;8.57;3.03;;;;;;;;;;6226952;23;20418;-91
2022/09/19 08:19:27;;;;;;;6.07;5.13;;;;;;;;;;6129817;23;20562;-91
2022/09/19 08:21:54;;;;;;;4.33;2.30;;;;;;;;;;6098355;23;20401;-90
2022/09/19 08:24:20;;;;;;;2.60;1.83;;;;;;;;;;6101527;23;20404;-91
2022/09/19 08:26:46;;;;;;;2.80;2.30;;;;;;;;;;6098925;23;20397;-87
2022/09/19 08:29:12;;;;;;;1.90;1.80;;;;;;;;;;6125122;23;20440;-90
2022/09/19 08:31:39;;;;;;;1.80;1.70;;;;;;;;;;6098148;23;20425;-90
2022/09/19 08:34:05;;;;;;;4.60;2.57;;;;;;;;;;6128856;23;20378;-89
2022/09/19 08:36:31;;;;;;;3.87;1.80;;;;;;;;;;6122907;23;20475;-89
2022/09/19 08:38:57;;;;;;;5.07;2.40;;;;;;;;;;6098897;23;20744;-89
2022/09/19 08:41:44;;;;;;;4.17;2.10;;;;;;;;;;6098277;23;20457;-89
2022/09/19 08:44:14;;;;;;;4.33;2.33;;;;;;;;;;6102779;23;20452;-88
2022/09/19 08:46:50;;;;;;;4.90;2.87;;;;;;;;;;6109869;23;20412;-90
2022/09/19 08:49:20;;;;;;;5.47;1.90;;;;;;;;;;6126404;23;20905;-90
2022/09/19 08:51:46;;;;;;;4.80;2.20;;;;;;;;;;6147994;23;20380;-90
2022/09/19 08:54:18;;;;;;;6.93;2.43;;;;;;;;;;6123949;23;20482;-90
2022/09/19 08:56:44;;;;;;;4.47;2.10;;;;;;;;;;6117951;23;20408;-89
2022/09/19 08:59:13;;;;;;;2.67;1.70;;;;;;;;;;6150056;23;20368;-90
2022/09/19 09:01:39;;;;;;;2.33;2.10;;;;;;;;;;6122168;23;20437;-90
2022/09/19 09:04:14;;;;;;;5.80;2.57;;;;;;;;;;6124611;23;20416;-90
2022/09/19 09:06:46;;;;;;;1.80;1.70;;;;;;;;;;6120914;23;20391;-90
2022/09/19 09:09:18;;;;;;;2.50;2.00;;;;;;;;;;6149352;23;20384;-89
2022/09/19 09:12:07;;;;;;;2.87;2.20;;;;;;;;;;6123119;23;20749;-88
2022/09/19 09:14:46;;;;;;;2.70;2.00;;;;;;;;;;6104819;23;20451;-90
2022/09/19 09:17:12;;;;;;;4.07;2.50;;;;;;;;;;6120615;23;20807;-89
2022/09/19 09:19:51;;;;;;;5.53;2.50;;;;;;;;;;6123766;23;20444;-89
2022/09/19 09:22:21;;;;;;;5.83;2.40;;;;;;;;;;6126182;23;20408;-90
2022/09/19 09:24:54;;;;;;;5.10;2.60;;;;;;;;;;6130102;23;20395;-90
2022/09/19 09:27:33;;;;;;;3.00;2.30;;;;;;;;;;6140070;23;20420;-91
2022/09/19 09:30:04;;;;;;;5.47;2.37;;;;;;;;;;6145933;23;20408;-93
2022/09/19 09:32:32;;;;;;;2.17;1.97;;;;;;;;;;6145825;23;20389;-93
2022/09/19 09:35:07;;;;;;;5.77;2.17;;;;;;;;;;6135272;23;20436;-91
2022/09/19 09:37:45;;;;;;;6.53;3.00;;;;;;;;;;6160721;23;20376;-91
2022/09/19 09:43:11;;;;;;;8.83;4.03;;;;;;;;;;6133352;23;20420;-85
2022/09/19 09:45:45;;;;;;;5.37;2.23;;;;;;;;;;6148263;23;20863;-85
2022/09/19 09:48:20;;;;;;;6.20;2.30;;;;;;;;;;6124206;23;20392;-88
2022/09/19 09:51:05;;;;;;;6.77;2.30;;;;;;;;;;6148660;23;20443;-89
2022/09/19 09:53:50;;;;;;;6.70;3.43;;;;;;;;;;6125442;23;20368;-89
2022/09/19 09:56:23;;;;;;;4.10;2.50;;;;;;;;;;6118885;23;20384;-86
2022/09/19 09:59:08;;;;;;;8.73;2.07;;;;;;;;;;6150717;23;20367;-88
2022/09/19 10:04:29;;;;;;;6.30;3.00;;;;;;;;;;6150834;23;20686;-88
2022/09/19 10:07:09;;;;;;;9.70;3.63;;;;;;;;;;6121908;23;20906;-87
2022/09/19 10:09:37;;;;;;;4.73;2.97;;;;;;;;;;6152340;23;20359;-89
2022/09/19 10:12:21;;;;;;;6.20;2.30;;;;;;;;;;6123172;23;20396;-89
2022/09/19 10:14:47;;;;;;;4.07;2.30;;;;;;;;;;6153274;23;20360;-89
2022/09/19 10:17:17;;;;;;;3.50;1.40;;;;;;;;;;6149517;23;20384;-89
2022/09/19 10:19:47;;;;;;;4.50;1.67;;;;;;;;;;6127640;23;20438;-89
2022/09/19 10:22:14;;;;;;;6.23;2.00;;;;;;;;;;6126206;23;20794;-89
2022/09/19 10:24:55;;;;;;;1.80;1.30;;;;;;;;;;6153240;23;20371;-88
2022/09/19 10:27:28;;;;;;;9.10;2.03;;;;;;;;;;6125557;23;20415;-89
2022/09/19 10:29:59;;;;;;;2.53;1.20;;;;;;;;;;6150243;23;20356;-88
2022/09/19 10:32:26;;;;;;;3.37;1.40;;;;;;;;;;6147895;23;20475;-87
2022/09/19 10:34:52;;;;;;;3.33;1.90;;;;;;;;;;6122977;23;20384;-89
2022/09/19 10:37:28;;;;;;;3.17;1.40;;;;;;;;;;6146528;23;20369;-88
2022/09/19 10:40:02;;;;;;;4.37;1.10;;;;;;;;;;6121615;23;20431;-89
2022/09/19 10:42:35;;;;;;;5.30;1.93;;;;;;;;;;6120808;23;20507;-88
2022/09/19 10:45:02;;;;;;;3.10;1.77;;;;;;;;;;6149483;23;20372;-89
2022/09/19 10:47:28;;;;;;;3.97;2.17;;;;;;;;;;6121597;23;20400;-90
2022/09/19 10:50:00;;;;;;;4.60;1.97;;;;;;;;;;6150724;23;21169;-90
2022/09/19 10:52:30;;;;;;;2.23;2.03;;;;;;;;;;6147097;23;20374;-89
2022/09/19 10:54:58;;;;;;;4.90;2.47;;;;;;;;;;6124990;23;20438;-87
2022/09/19 10:57:40;;;;;;;3.87;1.97;;;;;;;;;;6120675;23;20391;-88
2022/09/19 11:00:06;;;;;;;3.23;1.87;;;;;;;;;;6152791;23;20408;-88
2022/09/19 11:02:33;;;;;;;2.50;1.60;;;;;;;;;;6128091;23;20417;-87
2022/09/19 11:05:02;;;;;;;7.03;2.73;;;;;;;;;;6162605;23;20836;-88
2022/09/19 11:10:42;;;;;;;4.83;2.50;;;;;;;;;;6158136;23;20360;-91
2022/09/19 11:13:35;;;;;;;7.60;3.03;;;;;;;;;;6131335;23;20407;-92
2022/09/19 11:16:17;;;;;;;4.07;2.03;;;;;;;;;;6125160;23;20384;-91
2022/09/19 11:19:06;;;;;;;4.67;2.37;;;;;;;;;;6132669;23;20443;-91
2022/09/19 11:21:45;;;;;;;2.47;1.67;;;;;;;;;;6135504;23;20388;-90
2022/09/19 11:24:53;;;;;;;;;;;;;;;;;;;;;
2022/09/19 11:36:50;;;;;;;1.50;1.40;;;;;;;;;;6161586;23;20883;-90
2022/09/19 11:42:26;;;;;;;8.30;2.20;;;;;;;;;;6161468;23;20969;-92
2022/09/19 11:45:10;;;;;;;5.67;1.57;;;;;;;;;;6135748;23;20406;-91
2022/09/19 11:47:36;;;;;;;1.63;1.50;;;;;;;;;;6158899;23;20393;-91
2022/09/19 11:50:08;;;;;;;1.50;0.83;;;;;;;;;;6166062;23;20376;-93
2022/09/19 11:52:37;;;;;;;4.10;1.13;;;;;;;;;;6145815;23;20388;-93
2022/09/19 11:55:19;;;;;;;2.97;0.70;;;;;;;;;;6143019;23;20452;-93
2022/09/19 11:58:03;;;;;;;1.73;0.80;;;;;;;;;;6160503;23;20376;-91
2022/09/19 12:00:33;;;;;;;1.00;1.00;;;;;;;;;;6140115;23;20426;-92
2022/09/19 12:06:18;;;;;;;1.27;0.80;;;;;;;;;;6170396;23;20356;-91
2022/09/19 12:08:57;;;;;;;0.83;0.83;;;;;;;;;;6145373;23;20459;-91
2022/09/19 12:11:29;;;;;;;1.10;0.73;;;;;;;;;;6131385;23;20705;-90
2022/09/19 12:13:59;;;;;;;2.10;0.90;;;;;;;;;;6137701;23;20467;-91
2022/09/19 12:16:45;;;;;;;0.50;0.50;;;;;;;;;;6141466;23;20551;-90
2022/09/19 12:25:32;;;;;;;0.80;0.80;;;;;;;;;;6166279;23;20376;-92
2022/09/19 12:28:05;;;;;;;1.70;1.10;;;;;;;;;;6140817;23;20424;-92
2022/09/19 12:30:39;;;;;;;0.90;0.87;;;;;;;;;;6139079;23;20433;-91
2022/09/19 12:48:41;;;;;;;1.47;0.77;;;;;;;;;;6210457;23;20430;-90
2022/09/19 12:51:11;;;;;;;1.87;0.93;;;;;;;;;;6209316;23;20521;-88
2022/09/19 12:57:16;;;;;;;0.80;0.80;;;;;;;;;;6209587;23;20829;-89
2022/09/19 13:02:51;;;;;;;1.07;1.00;;;;;;;;;;6208162;23;20397;-89
2022/09/19 13:05:29;;;;;;;1.03;1.03;;;;;;;;;;6185405;23;20386;-89
2022/09/19 13:13:47;;;;;;;1.63;1.17;;;;;;;;;;6239406;23;20432;-86
2022/09/19 13:16:17;;;;;;;2.17;1.30;;;;;;;;;;6217581;23;20436;-89
2022/09/19 13:24:42;;;;;;;1.57;1.33;;;;;;;;;;6262962;23;20564;-88
2022/09/19 13:27:14;;;;;;;1.73;1.23;;;;;;;;;;6230441;23;20385;-89
2022/09/19 13:29:45;;;;;;;2.57;1.40;;;;;;;;;;6226253;23;20428;-86
2022/09/19 13:32:40;;;;;;;3.57;1.53;;;;;;;;;;6229531;23;20943;-89
2022/09/19 13:35:06;;;;;;;1.13;1.00;;;;;;;;;;6211662;23;20409;-88
2022/09/19 13:40:46;;;;;;;3.10;1.17;;;;;;;;;;6249765;23;20436;-88
2022/09/19 13:43:18;;;;;;;1.80;1.00;;;;;;;;;;6224536;23;20456;-90
2022/09/19 13:45:55;;;;;;;3.50;3.20;;;;;;;;;;6221144;23;20389;-89
2022/09/19 13:48:28;;;;;;;1.03;1.03;;;;;;;;;;6240215;23;20425;-88
2022/09/19 13:51:05;;;;;;;0.60;0.60;;;;;;;;;;6240866;23;20408;-90
2022/09/19 13:53:33;;;;;;;1.43;0.73;;;;;;;;;;6213940;23;20559;-86
2022/09/19 13:55:59;;;;;;;0.77;0.77;;;;;;;;;;6218016;23;20473;-89
2022/09/19 13:58:33;;;;;;;1.03;0.80;;;;;;;;;;6215331;23;20386;-90
2022/09/19 14:01:19;;;;;;;0.60;0.57;;;;;;;;;;6218721;23;20463;-90
2022/09/19 14:03:47;;;;;;;0.77;0.60;;;;;;;;;;6244559;23;20455;-90
2022/09/19 14:06:39;;;;;;;0.70;0.70;;;;;;;;;;6219333;23;20377;-88
2022/09/19 14:09:21;;;;;;;0.97;0.97;;;;;;;;;;6241360;22;20405;-90
2022/09/19 14:11:51;;;;;;;1.00;1.00;;;;;;;;;;6245469;23;20456;-90
2022/09/19 14:14:41;;;;;;;1.17;1.07;;;;;;;;;;6215087;23;20428;-89
2022/09/19 14:17:19;;;;;;;2.53;0.67;;;;;;;;;;6218920;23;20752;-89
2022/09/19 14:19:46;;;;;;;1.10;1.10;;;;;;;;;;6262939;23;20609;-91
2022/09/19 14:22:39;;;;;;;0.90;0.90;;;;;;;;;;6243126;22;20410;-89
2022/09/19 14:25:11;;;;;;;0.80;0.80;;;;;;;;;;6215626;23;20377;-92
2022/09/19 14:27:47;;;;;;;0.80;0.80;;;;;;;;;;6218280;23;20421;-90
2022/09/19 14:30:39;;;;;;;0.77;0.70;;;;;;;;;;6219245;23;20515;-91
2022/09/19 14:33:08;;;;;;;0.70;0.70;;;;;;;;;;6216947;23;20477;-90
2022/09/19 14:35:43;;;;;;;3.40;1.40;;;;;;;;;;6219276;23;21065;-90
2022/09/19 14:38:33;;;;;;;1.10;1.00;;;;;;;;;;6192202;23;20902;-89
2022/09/19 14:41:05;;;;;;;2.00;1.17;;;;;;;;;;6216961;23;20444;-90
2022/09/19 14:43:49;;;;;;;1.97;1.20;;;;;;;;;;6215911;23;20397;-89
2022/09/19 14:46:18;;;;;;;1.23;1.13;;;;;;;;;;6219113;23;20388;-88
2022/09/19 14:48:50;;;;;;;1.60;0.97;;;;;;;;;;6246172;23;20465;-90
2022/09/19 14:51:26;;;;;;;1.70;1.40;;;;;;;;;;6219590;23;20378;-90
2022/09/19 14:53:55;;;;;;;1.73;1.10;;;;;;;;;;6218285;23;20389;-89
2022/09/19 14:56:22;;;;;;;0.90;0.90;;;;;;;;;;6246622;23;20443;-86
2022/09/19 14:58:52;;;;;;;1.33;0.80;;;;;;;;;;6217277;23;20406;-91
2022/09/19 15:01:38;;;;;;;5.87;1.40;;;;;;;;;;6249900;23;20413;-88
2022/09/19 15:04:16;;;;;;;1.80;1.43;;;;;;;;;;6225291;23;20377;-88
2022/09/19 15:06:46;;;;;;;2.67;1.57;;;;;;;;;;6249681;23;20444;-89
2022/09/19 15:09:22;;;;;;;1.30;1.30;;;;;;;;;;6219693;23;20419;-92
2022/09/19 15:11:53;;;;;;;3.53;0.97;;;;;;;;;;6219540;23;20946;-90
2022/09/19 15:14:22;;;;;;;1.33;1.20;;;;;;;;;;6219599;23;20425;-88
2022/09/19 15:17:09;;;;;;;1.47;0.90;;;;;;;;;;6219601;23;20465;-89
2022/09/19 15:19:37;;;;;;;1.47;1.37;;;;;;;;;;6214155;23;20432;-87
2022/09/19 15:22:03;;;;;;;1.60;1.47;;;;;;;;;;6219872;23;20696;-87
2022/09/19 15:24:30;;;;;;;3.10;1.03;;;;;;;;;;6219542;23;20385;-87
2022/09/19 15:26:57;;;;;;;1.70;0.90;;;;;;;;;;6221957;23;20398;-90
2022/09/19 15:29:33;;;;;;;1.30;1.30;;;;;;;;;;6221052;23;20397;-86
2022/09/19 15:32:28;;;;;;;2.70;1.80;;;;;;;;;;6256199;23;20348;-88
2022/09/19 15:34:54;;;;;;;2.80;1.20;;;;;;;;;;6256672;23;20401;-88
2022/09/19 15:37:22;;;;;;;1.70;1.07;;;;;;;;;;6225205;23;20471;-88
2022/09/19 15:39:50;;;;;;;0.90;0.90;;;;;;;;;;6223371;23;20414;-89
2022/09/19 15:42:16;;;;;;;4.83;1.17;;;;;;;;;;6221834;23;20802;-90
2022/09/19 15:44:46;;;;;;;1.30;1.20;;;;;;;;;;6217152;23;20396;-89
2022/09/19 15:47:15;;;;;;;1.10;1.00;;;;;;;;;;6217893;23;20455;-89
2022/09/19 15:49:45;;;;;;;7.90;1.30;;;;;;;;;;6215650;23;20373;-89
2022/09/19 15:52:20;;;;;;;4.93;1.40;;;;;;;;;;6217017;23;20405;-88
2022/09/19 15:54:48;;;;;;;1.83;1.13;;;;;;;;;;6212643;23;20393;-86
2022/09/19 15:57:26;;;;;;;2.40;2.00;;;;;;;;;;6216532;23;20425;-89
2022/09/19 15:59:52;;;;;;;3.23;1.60;;;;;;;;;;6241340;23;20427;-88
2022/09/19 16:02:21;;;;;;;1.37;1.30;;;;;;;;;;6215899;23;20928;-90
2022/09/19 16:05:02;;;;;;;2.93;1.50;;;;;;;;;;6215222;23;20874;-90
2022/09/19 16:10:21;;;;;;;3.20;1.50;;;;;;;;;;6245209;22;20404;-91
2022/09/19 16:12:51;;;;;;;1.27;0.93;;;;;;;;;;6212719;23;20519;-89
2022/09/19 16:15:33;;;;;;;5.20;1.17;;;;;;;;;;6244150;23;20350;-91
2022/09/19 16:18:00;;;;;;;1.70;1.60;;;;;;;;;;6241115;23;20389;-90
2022/09/19 16:20:32;;;;;;;1.93;1.83;;;;;;;;;;6216461;23;20487;-90
2022/09/19 16:23:11;;;;;;;1.00;1.00;;;;;;;;;;6248057;23;20743;-87
2022/09/19 16:25:37;;;;;;;0.73;0.73;;;;;;;;;;6224315;23;20744;-89
2022/09/19 16:28:09;;;;;;;1.73;1.17;;;;;;;;;;6248777;23;20618;-87
2022/09/19 16:30:48;;;;;;;3.23;1.13;;;;;;;;;;6221355;23;20370;-88
2022/09/19 16:33:14;;;;;;;0.90;0.90;;;;;;;;;;6220439;23;20451;-88
2022/09/19 16:35:41;;;;;;;1.60;1.03;;;;;;;;;;6223725;23;20388;-89
2022/09/19 16:38:07;;;;;;;2.53;1.10;;;;;;;;;;6219432;23;20377;-88
2022/09/19 16:40:34;;;;;;;2.23;0.90;;;;;;;;;;6252717;23;20445;-89
2022/09/19 16:43:01;;;;;;;2.63;1.17;;;;;;;;;;6225096;23;20369;-90
2022/09/19 16:45:39;;;;;;;0.93;0.93;;;;;;;;;;6239057;22;20516;-88
2022/09/19 16:48:05;;;;;;;9.20;1.13;;;;;;;;;;6231109;23;20730;-89
2022/09/19 16:50:33;;;;;;;1.10;1.03;;;;;;;;;;6221012;23;20357;-90
2022/09/19 16:53:17;;;;;;;1.60;1.40;;;;;;;;;;6219284;23;20404;-89
2022/09/19 16:55:50;;;;;;;1.27;1.17;;;;;;;;;;6243575;23;20500;-89
2022/09/19 16:58:16;;;;;;;2.00;1.80;;;;;;;;;;6215887;23;20390;-90
2022/09/19 17:00:45;;;;;;;2.10;1.57;;;;;;;;;;6219009;23;20455;-86
2022/09/19 17:03:21;;;;;;;2.20;1.53;;;;;;;;;;6216462;23;20936;-88
2022/09/19 17:05:47;;;;;;;1.17;0.90;;;;;;;;;;6218056;23;21156;-89
2022/09/19 17:08:13;;;;;;;1.93;1.83;;;;;;;;;;6213464;23;20477;-88
2022/09/19 17:10:41;;;;;;;1.40;1.30;;;;;;;;;;6221097;23;20912;-90
2022/09/19 17:13:14;;;;;;;3.03;1.23;;;;;;;;;;6242657;23;20413;-89
2022/09/19 17:15:42;;;;;;;4.83;1.40;;;;;;;;;;6213228;23;20361;-90
2022/09/19 17:18:19;;;;;;;2.07;1.83;;;;;;;;;;6211940;23;21120;-89
2022/09/19 17:20:45;;;;;;;1.90;1.80;;;;;;;;;;6210234;23;20423;-91